Time;durP1;ratioP1;P1;durP2;ratioP2;P2;SDS_P1;SDS_P2;PMS_P1;PMS_P2;Temp;Humidity;BMP_temperature;BMP_pressure;BME280_temperature;BME280_humidity;BME280_pressure;Samples;Min_cycle;Max_cycle;Signal;HPM_P1;HPM_P2
2023/09/29 00:02:32;;;;;;;16.48;6.18;;;;;;;17.77;86.46;101586.09;10463465;28;20548;-63
2023/09/29 00:07:57;;;;;;;16.35;6.82;;;;;;;17.73;87.35;101578.44;10474989;28;20053;-63
2023/09/29 00:13:19;;;;;;;;;;;;;;;17.74;88.41;101582.78;10479640;28;20079;-63
2023/09/29 00:18:40;;;;;;;18.17;8.02;;;;;;;17.79;87.84;101583.41;10474796;28;20520;-63
2023/09/29 00:24:04;;;;;;;16.23;7.50;;;;;;;17.78;87.74;101589.56;10470007;28;20048;-63
2023/09/29 00:29:25;;;;;;;13.80;7.47;;;;;;;17.77;88.22;101595.72;10466502;28;20052;-63
2023/09/29 00:34:47;;;;;;;14.98;7.60;;;;;;;17.75;88.28;101592.31;10469516;28;20136;-63
2023/09/29 00:40:12;;;;;;;17.15;7.72;;;;;;;17.75;88.49;101597.56;10472180;28;20055;-62
2023/09/29 00:45:35;;;;;;;17.85;8.10;;;;;;;17.75;88.58;101576.63;10465011;28;20111;-62
2023/09/29 00:50:57;;;;;;;20.95;8.25;;;;;;;17.72;88.72;101571.53;10454911;28;20036;-62
2023/09/29 00:56:19;;;;;;;16.33;7.97;;;;;;;17.69;89.13;101553.38;10473703;28;20774;-62
2023/09/29 01:01:41;;;;;;;20.55;9.82;;;;;;;17.67;88.80;101547.34;10479222;28;20099;-62
2023/09/29 01:07:03;;;;;;;20.02;9.68;;;;;;;17.67;89.27;101557.81;10468635;28;20392;-62
2023/09/29 01:12:28;;;;;;;15.80;10.25;;;;;;;17.66;89.87;101562.19;10467155;28;20052;-62
2023/09/29 01:17:51;;;;;;;19.70;11.60;;;;;;;17.66;89.85;101556.97;10480868;28;20396;-62
2023/09/29 01:23:13;;;;;;;21.63;11.55;;;;;;;17.65;90.12;101560.47;10489764;28;20463;-62
2023/09/29 01:28:34;;;;;;;20.17;11.30;;;;;;;17.65;89.95;101549.19;10475354;28;20072;-62
2023/09/29 01:33:56;;;;;;;21.48;11.90;;;;;;;17.67;90.03;101547.34;10471761;28;20447;-63
2023/09/29 01:39:18;;;;;;;19.77;13.10;;;;;;;17.69;89.89;101550.75;10472992;28;20044;-62
2023/09/29 01:44:39;;;;;;;19.27;13.02;;;;;;;17.73;90.40;101537.41;10468500;28;20419;-62
2023/09/29 01:50:01;;;;;;;19.45;12.93;;;;;;;17.80;90.26;101530.97;10473656;28;20388;-62
2023/09/29 01:55:24;;;;;;;27.83;14.48;;;;;;;17.80;90.17;101530.13;10472478;28;20053;-62
2023/09/29 02:00:46;;;;;;;22.13;14.35;;;;;;;17.84;90.22;101524.66;10483613;28;20040;-63
2023/09/29 02:06:08;;;;;;;23.02;14.10;;;;;;;17.83;90.59;101522.13;10471004;28;20521;-62
2023/09/29 02:11:29;;;;;;;25.80;13.63;;;;;;;17.87;90.43;101518.44;10469101;28;20041;-62
2023/09/29 02:16:51;;;;;;;22.40;14.18;;;;;;;17.91;90.08;101520.81;10469637;28;20048;-63
2023/09/29 02:22:16;;;;;;;22.05;13.95;;;;;;;17.95;90.03;101511.03;10473369;28;20506;-62
2023/09/29 02:27:38;;;;;;;20.83;13.98;;;;;;;17.98;90.24;101505.66;10473009;28;20141;-62
2023/09/29 02:32:59;;;;;;;26.17;14.80;;;;;;;18.00;90.51;101478.44;10453616;28;20049;-63
2023/09/29 02:38:21;;;;;;;20.85;13.80;;;;;;;18.04;89.78;101492.22;10449993;28;20500;-62
2023/09/29 02:43:43;;;;;;;21.55;14.30;;;;;;;18.05;89.90;101507.03;10469108;28;20047;-62
2023/09/29 02:49:07;;;;;;;23.40;14.55;;;;;;;18.02;90.17;101486.22;10464525;28;20514;-63
2023/09/29 02:54:29;;;;;;;21.92;14.82;;;;;;;18.06;89.99;101498.25;10476066;28;20048;-62
2023/09/29 02:59:50;;;;;;;25.23;15.77;;;;;;;18.05;89.88;101499.19;10466333;28;20051;-63
2023/09/29 03:05:14;;;;;;;23.27;15.48;;;;;;;18.05;90.27;101501.81;10471353;28;20133;-63
2023/09/29 03:10:37;;;;;;;24.27;15.82;;;;;;;18.02;90.73;101507.19;10472485;28;20040;-64
2023/09/29 03:15:58;;;;;;;23.52;15.27;;;;;;;17.97;91.02;101496.94;10469635;28;20043;-62
2023/09/29 03:21:20;;;;;;;24.17;16.30;;;;;;;17.99;91.47;101491.63;10473295;28;20680;-63
2023/09/29 03:26:44;;;;;;;21.15;15.40;;;;;;;18.01;91.92;101495.00;10482870;28;22002;-62
2023/09/29 03:32:08;;;;;;;23.05;15.18;;;;;;;17.99;92.47;101481.16;10481102;28;20591;-62
2023/09/29 03:37:30;;;;;;;22.42;15.43;;;;;;;18.02;92.01;101487.06;10478469;28;20063;-61
2023/09/29 03:42:51;;;;;;;26.55;15.05;;;;;;;18.04;92.25;101484.38;10479531;28;20651;-63
2023/09/29 03:48:15;;;;;;;24.33;15.57;;;;;;;18.06;91.74;101483.38;10478641;28;20044;-62
2023/09/29 03:53:38;;;;;;;25.25;15.25;;;;;;;18.09;91.58;101477.97;10478038;28;20052;-63
2023/09/29 03:58:59;;;;;;;18.73;14.27;;;;;;;18.07;92.32;101468.53;10479495;28;20403;-62
2023/09/29 04:04:21;;;;;;;23.13;15.30;;;;;;;18.07;92.13;101463.28;10478043;28;20040;-63
2023/09/29 04:09:43;;;;;;;23.85;15.38;;;;;;;18.06;92.49;101461.56;10479111;28;20044;-63
2023/09/29 04:15:06;;;;;;;19.77;13.57;;;;;;;18.06;92.55;101448.47;10480439;28;20051;-62
2023/09/29 04:20:28;;;;;;;21.58;14.30;;;;;;;18.08;92.85;101444.00;10483213;28;20032;-61
2023/09/29 04:25:50;;;;;;;27.25;15.07;;;;;;;18.11;92.34;101448.25;10477560;28;20072;-62
2023/09/29 04:31:13;;;;;;;23.45;14.43;;;;;;;18.12;92.50;101437.69;10475275;28;20049;-62
2023/09/29 04:36:35;;;;;;;21.30;14.13;;;;;;;18.14;92.17;101437.59;10482954;28;20492;-62
2023/09/29 04:41:57;;;;;;;24.48;14.60;;;;;;;18.11;92.74;101412.44;10471875;28;20051;-62
2023/09/29 04:47:20;;;;;;;25.25;15.13;;;;;;;18.13;92.79;101399.25;10472117;28;20040;-63
2023/09/29 04:52:41;;;;;;;19.13;13.57;;;;;;;18.12;92.50;101387.06;10470650;28;20064;-63
2023/09/29 04:58:03;;;;;;;26.35;14.52;;;;;;;18.15;91.83;101392.97;10485878;28;20041;-63
2023/09/29 05:03:25;;;;;;;20.98;13.57;;;;;;;18.17;91.53;101401.63;10471395;28;20044;-63
2023/09/29 05:08:47;;;;;;;22.00;14.05;;;;;;;18.17;91.96;101385.88;10460807;28;20051;-63
2023/09/29 05:14:08;;;;;;;20.60;13.50;;;;;;;18.20;91.81;101375.28;10475745;28;20048;-63
2023/09/29 05:19:31;;;;;;;20.13;12.73;;;;;;;18.21;91.50;101366.47;10473216;28;20056;-64
2023/09/29 05:24:53;;;;;;;25.02;13.30;;;;;;;18.21;92.21;101365.63;10467436;28;20072;-62
2023/09/29 05:30:16;;;;;;;20.42;12.82;;;;;;;18.23;91.16;101390.81;10469390;28;20131;-62
2023/09/29 05:35:38;;;;;;;16.65;11.85;;;;;;;18.25;91.56;101409.94;10471863;28;20049;-61
2023/09/29 05:40:59;;;;;;;19.80;11.18;;;;;;;18.23;92.36;101405.69;10467222;28;20132;-62
2023/09/29 05:46:21;;;;;;;16.77;10.82;;;;;;;18.21;92.40;101397.06;10462399;28;20621;-62
2023/09/29 05:51:44;;;;;;;17.30;11.38;;;;;;;18.22;92.25;101391.72;10459754;28;20052;-62
2023/09/29 05:57:06;;;;;;;18.50;12.02;;;;;;;18.24;92.24;101379.41;10468099;28;20071;-62
2023/09/29 06:02:27;;;;;;;21.00;12.55;;;;;;;18.22;92.31;101404.84;10474254;28;20128;-62
2023/09/29 06:07:49;;;;;;;21.50;12.65;;;;;;;18.19;92.55;101407.63;10466457;28;20063;-62
2023/09/29 06:13:10;;;;;;;20.42;12.52;;;;;;;18.22;92.99;101399.59;10467514;28;20063;-62
2023/09/29 06:18:32;;;;;;;18.88;12.05;;;;;;;18.28;92.81;101415.00;10469453;28;20067;-62
2023/09/29 06:23:54;;;;;;;18.48;12.68;;;;;;;18.32;92.42;101416.53;10468070;28;20382;-62
2023/09/29 06:29:16;;;;;;;17.98;12.52;;;;;;;18.33;93.21;101399.88;10471765;28;20042;-62
2023/09/29 06:34:38;;;;;;;18.02;12.43;;;;;;;18.33;92.41;101391.19;10471347;28;20045;-62
2023/09/29 06:39:59;;;;;;;20.63;11.70;;;;;;;18.37;92.43;101404.03;10467115;28;20370;-62
2023/09/29 06:45:21;;;;;;;21.70;10.63;;;;;;;18.38;92.55;101397.03;10470758;28;20059;-62
2023/09/29 06:50:46;;;;;;;17.67;11.13;;;;;;;18.39;92.35;101391.69;10477048;28;20138;-62
2023/09/29 06:56:08;;;;;;;19.88;10.77;;;;;;;18.43;92.51;101377.53;10469506;28;20064;-62
2023/09/29 07:01:29;;;;;;;19.17;9.82;;;;;;;18.46;91.99;101372.13;10463155;28;20047;-62
2023/09/29 07:06:51;;;;;;;17.55;9.35;;;;;;;18.53;91.48;101381.34;10479798;28;20049;-62
2023/09/29 07:12:13;;;;;;;16.35;8.43;;;;;;;18.61;90.60;101401.91;10461238;28;20135;-62
2023/09/29 07:17:34;;;;;;;10.38;7.28;;;;;;;18.67;90.62;101391.94;10465501;28;20090;-62
2023/09/29 07:22:56;;;;;;;12.00;6.82;;;;;;;18.72;90.50;101395.16;10464992;28;20056;-62
2023/09/29 07:28:19;;;;;;;16.10;7.20;;;;;;;18.75;90.75;101387.13;10465999;28;20053;-62
2023/09/29 07:33:41;;;;;;;12.43;6.55;;;;;;;18.79;90.06;101396.50;10466371;28;20048;-62
2023/09/29 07:39:03;;;;;;;10.90;6.07;;;;;;;18.80;90.03;101403.47;10462842;28;20052;-62
2023/09/29 07:44:24;;;;;;;10.25;5.97;;;;;;;18.88;89.14;101411.75;10459796;28;20053;-62
2023/09/29 07:49:46;;;;;;;16.20;6.93;;;;;;;18.89;89.75;101381.97;10469838;28;20570;-62
2023/09/29 07:55:09;;;;;;;9.98;5.70;;;;;;;18.91;89.20;101393.22;10464691;28;20044;-62
2023/09/29 08:00:31;;;;;;;17.08;6.70;;;;;;;18.97;89.12;101395.50;10465933;28;20478;-62
2023/09/29 08:05:54;;;;;;;14.60;6.05;;;;;;;19.01;88.75;101385.66;10465444;28;20044;-62
2023/09/29 08:11:16;;;;;;;12.65;6.15;;;;;;;19.04;88.58;101383.72;10470670;28;20032;-62
2023/09/29 08:16:38;;;;;;;11.75;5.35;;;;;;;19.10;88.40;101394.81;10475755;28;20049;-62
2023/09/29 08:21:59;;;;;;;9.95;5.40;;;;;;;19.12;88.87;101392.97;10483458;28;20123;-62
2023/09/29 08:27:21;;;;;;;14.68;5.18;;;;;;;19.17;88.27;101385.66;10475779;28;20063;-62
2023/09/29 08:32:43;;;;;;;11.25;4.65;;;;;;;19.20;88.37;101396.84;10483918;28;20047;-62
2023/09/29 08:38:05;;;;;;;8.05;4.97;;;;;;;19.26;88.60;101364.16;10469334;28;20135;-63
2023/09/29 08:43:29;;;;;;;9.52;4.93;;;;;;;19.40;87.68;101382.59;10466424;28;20483;-63
2023/09/29 08:48:54;;;;;;;9.15;4.90;;;;;;;19.50;87.73;101362.78;10471018;28;20144;-63
2023/09/29 08:54:17;;;;;;;7.15;4.35;;;;;;;19.62;87.25;101378.66;10468452;28;20679;-63
2023/09/29 08:59:42;;;;;;;9.00;4.82;;;;;;;19.72;87.72;101364.03;10483461;28;20496;-63
2023/09/29 09:05:04;;;;;;;10.07;4.50;;;;;;;19.78;87.17;101347.06;10472774;28;20036;-63
2023/09/29 09:10:34;;;;;;;11.68;4.60;;;;;;;19.80;87.23;101350.44;10466225;28;20040;-63
2023/09/29 09:16:00;;;;;;;13.45;5.10;;;;;;;19.82;87.45;101359.06;10469029;28;20520;-63
2023/09/29 09:21:34;;;;;;;8.65;4.40;;;;;;;19.94;87.85;101347.84;10470969;28;20520;-64
2023/09/29 09:27:01;;;;;;;11.65;5.00;;;;;;;20.12;87.18;101351.13;10472243;28;20047;-62
2023/09/29 09:32:27;;;;;;;11.50;4.93;;;;;;;20.31;86.23;101357.00;10467052;28;20412;-62
2023/09/29 09:37:53;;;;;;;;;;;;;;;20.48;86.16;101355.00;10471244;28;20047;-63
2023/09/29 09:43:18;;;;;;;10.35;4.70;;;;;;;20.62;84.88;101351.50;10469574;28;20016;-63
2023/09/29 09:48:53;;;;;;;7.40;4.10;;;;;;;20.69;85.29;101364.16;10475654;28;20139;-62
2023/09/29 09:54:30;;;;;;;9.85;3.90;;;;;;;20.77;85.95;101367.16;10466388;28;20465;-64
2023/09/29 10:00:06;;;;;;;6.43;3.33;;;;;;;20.98;84.52;101364.94;10473157;28;20040;-64
2023/09/29 10:05:31;;;;;;;7.57;3.20;;;;;;;21.22;83.37;101350.22;10442150;28;20064;-63
2023/09/29 10:10:53;;;;;;;6.97;3.00;;;;;;;21.34;83.46;101354.66;10469018;28;20041;-63
2023/09/29 10:16:24;;;;;;;6.57;2.50;;;;;;;21.49;83.09;101350.16;10467588;28;20298;-63
2023/09/29 10:21:48;;;;;;;5.97;2.50;;;;;;;21.66;82.35;101356.00;10467801;28;20529;-63
2023/09/29 10:27:11;;;;;;;4.35;2.28;;;;;;;21.81;82.14;101346.25;10474989;28;20464;-63
2023/09/29 10:32:35;;;;;;;7.18;2.10;;;;;;;21.90;81.88;101335.06;10468344;28;20147;-63
2023/09/29 10:37:58;;;;;;;5.88;2.00;;;;;;;22.03;82.45;101333.25;10468715;28;20048;-63
2023/09/29 10:43:23;;;;;;;3.65;2.20;;;;;;;22.08;81.61;101339.06;10467560;28;20044;-63
2023/09/29 10:48:49;;;;;;;8.25;2.20;;;;;;;22.11;80.98;101344.13;10464991;28;20515;-63
2023/09/29 10:54:11;;;;;;;8.32;2.00;;;;;;;22.13;81.42;101330.81;10465969;28;20402;-63
2023/09/29 10:59:33;;;;;;;4.10;2.10;;;;;;;22.14;80.93;101330.72;10466089;28;20084;-63
2023/09/29 11:04:55;;;;;;;5.90;2.20;;;;;;;22.19;80.80;101330.41;10467121;28;20040;-63
2023/09/29 11:10:18;;;;;;;4.68;1.95;;;;;;;22.26;80.78;101316.69;10461712;28;20045;-63
2023/09/29 11:15:39;;;;;;;4.97;2.00;;;;;;;22.29;81.32;101316.47;10465717;28;20061;-63
2023/09/29 11:21:08;;;;;;;7.70;2.30;;;;;;;22.36;80.41;101309.78;10481126;28;20683;-63
2023/09/29 11:26:31;;;;;;;6.53;2.53;;;;;;;22.43;80.27;101308.44;10475132;28;20099;-61
2023/09/29 11:31:53;;;;;;;3.13;2.10;;;;;;;22.52;80.68;101306.91;10461076;28;20044;-62
2023/09/29 11:37:15;;;;;;;4.35;2.20;;;;;;;22.62;80.98;101318.50;10465892;28;20103;-63
2023/09/29 11:42:40;;;;;;;4.60;2.08;;;;;;;22.67;80.02;101314.59;10472421;28;20049;-63
2023/09/29 11:48:02;;;;;;;5.40;2.33;;;;;;;22.64;80.01;101317.47;10471328;28;20049;-63
2023/09/29 11:53:24;;;;;;;5.75;2.25;;;;;;;22.62;80.56;101314.09;10477020;28;20037;-63
2023/09/29 11:58:46;;;;;;;9.50;2.25;;;;;;;22.67;80.17;101311.94;10474510;28;20049;-63
2023/09/29 12:04:08;;;;;;;6.47;2.30;;;;;;;22.67;80.69;101317.22;10470765;28;20041;-63
2023/09/29 12:09:30;;;;;;;6.05;2.45;;;;;;;22.64;80.37;101322.72;10476192;28;20040;-63
2023/09/29 12:14:52;;;;;;;4.10;2.33;;;;;;;22.56;81.37;101335.63;10472925;28;20056;-63
2023/09/29 12:20:14;;;;;;;6.07;2.50;;;;;;;22.52;80.23;101328.88;10471640;28;20048;-62
2023/09/29 12:25:37;;;;;;;5.28;2.42;;;;;;;22.50;81.18;101330.78;10473917;28;20049;-63
2023/09/29 12:30:59;;;;;;;5.13;2.42;;;;;;;22.59;80.69;101324.88;10473721;28;20436;-63
2023/09/29 12:36:21;;;;;;;5.53;2.78;;;;;;;22.65;80.79;101321.75;10469236;28;20055;-63
2023/09/29 12:41:43;;;;;;;5.97;2.58;;;;;;;22.73;80.18;101321.22;10470935;28;20060;-63
2023/09/29 12:47:04;;;;;;;5.38;2.55;;;;;;;22.84;79.64;101335.31;10475341;28;20048;-63
2023/09/29 12:52:26;;;;;;;4.05;2.25;;;;;;;22.85;79.96;101329.06;10475826;28;20041;-63
2023/09/29 12:57:47;;;;;;;6.35;2.45;;;;;;;22.98;78.84;101330.84;10469919;28;20056;-63
2023/09/29 13:03:09;;;;;;;4.85;2.28;;;;;;;23.02;78.38;101340.22;10467808;28;20044;-63
2023/09/29 13:08:35;;;;;;;5.10;2.40;;;;;;;23.03;78.35;101328.69;10473518;28;20044;-63
2023/09/29 13:13:57;;;;;;;5.18;2.55;;;;;;;23.03;78.85;101333.97;10474647;28;20041;-63
2023/09/29 13:19:19;;;;;;;5.90;2.20;;;;;;;23.06;78.80;101336.38;10468993;28;20053;-63
2023/09/29 13:24:44;;;;;;;6.85;2.58;;;;;;;23.02;78.37;101348.16;10470895;28;20053;-63
2023/09/29 13:30:06;;;;;;;3.88;2.45;;;;;;;23.08;78.46;101342.41;10487726;28;20398;-63
2023/09/29 13:35:28;;;;;;;4.72;2.40;;;;;;;23.04;78.99;101346.25;10467716;28;20049;-61
2023/09/29 13:40:54;;;;;;;6.28;2.70;;;;;;;23.00;78.64;101356.19;10470437;28;20071;-63
2023/09/29 13:46:16;;;;;;;5.00;2.42;;;;;;;22.94;79.23;101349.56;10469132;28;20051;-62
2023/09/29 13:51:39;;;;;;;5.47;2.42;;;;;;;22.93;78.80;101361.06;10484823;28;20044;-63
2023/09/29 13:57:04;;;;;;;3.78;2.10;;;;;;;22.87;79.38;101358.84;10469201;28;20048;-63
2023/09/29 14:02:26;;;;;;;4.97;2.50;;;;;;;22.83;79.47;101346.84;10482785;28;20064;-62
2023/09/29 14:07:48;;;;;;;7.43;2.42;;;;;;;22.79;79.90;101358.59;10489133;28;20137;-62
2023/09/29 14:13:10;;;;;;;5.07;2.50;;;;;;;22.59;80.76;101361.81;10471852;28;20045;-62
2023/09/29 14:18:32;;;;;;;5.75;2.28;;;;;;;22.53;82.01;101364.00;10467719;28;20135;-61
2023/09/29 14:23:53;;;;;;;3.88;2.40;;;;;;;22.42;82.67;101364.75;10465208;28;20049;-62
2023/09/29 14:29:17;;;;;;;6.47;2.58;;;;;;;22.29;84.35;101371.84;10467474;28;20048;-62
2023/09/29 14:34:39;;;;;;;7.60;2.67;;;;;;;22.13;84.38;101371.22;10452994;28;20047;-64
2023/09/29 14:40:01;;;;;;;7.07;3.00;;;;;;;22.04;84.78;101374.50;10462271;28;20083;-63
2023/09/29 14:45:23;;;;;;;6.65;3.15;;;;;;;21.81;87.34;101378.69;10464648;28;20047;-62
2023/09/29 14:50:44;;;;;;;9.43;3.30;;;;;;;21.52;90.08;101403.50;10464934;28;20135;-62
2023/09/29 14:56:12;;;;;;;12.50;4.22;;;;;;;21.16;93.03;101418.22;10456999;28;20044;-62
2023/09/29 15:01:34;;;;;;;8.85;4.57;;;;;;;20.72;96.61;101435.00;10486180;28;20037;-62
2023/09/29 15:06:56;;;;;;;10.13;4.82;;;;;;;20.36;100.00;101434.66;10469798;28;20109;-62
2023/09/29 15:12:17;;;;;;;3.40;1.77;;;;;;;19.85;100.00;101485.03;10468330;28;20041;-61
2023/09/29 15:17:43;;;;;;;3.28;1.20;;;;;;;19.60;100.00;101508.34;10464809;28;20053;-61
2023/09/29 15:23:08;;;;;;;1.35;0.88;;;;;;;19.42;100.00;101535.63;10478610;28;20145;-62
2023/09/29 15:28:30;;;;;;;2.63;0.80;;;;;;;19.15;100.00;101542.34;10472126;28;20133;-62
2023/09/29 15:34:05;;;;;;;1.92;0.82;;;;;;;18.98;100.00;101549.38;10465399;28;20072;-64
2023/09/29 15:39:30;;;;;;;3.28;0.73;;;;;;;18.86;100.00;101567.53;10463889;28;20145;-62
2023/09/29 15:44:53;;;;;;;0.63;0.40;;;;;;;18.72;100.00;101570.00;10466568;28;20101;-62
2023/09/29 15:50:16;;;;;;;2.13;0.60;;;;;;;18.66;100.00;101600.00;10467213;28;20048;-63
2023/09/29 15:55:42;;;;;;;1.25;0.40;;;;;;;18.47;100.00;101615.00;10464056;28;20058;-62
2023/09/29 16:01:05;;;;;;;0.88;0.30;;;;;;;18.46;100.00;101629.00;10467260;28;20045;-63
2023/09/29 16:06:26;;;;;;;0.82;0.40;;;;;;;18.32;100.00;101635.81;10474735;28;20528;-63
2023/09/29 16:11:48;;;;;;;1.10;0.40;;;;;;;18.28;100.00;101652.59;10468160;28;20048;-63
2023/09/29 16:17:10;;;;;;;1.73;0.50;;;;;;;18.22;100.00;101681.75;10468849;28;20742;-62
2023/09/29 16:22:32;;;;;;;2.15;0.50;;;;;;;18.17;100.00;101700.31;10460361;28;20048;-63
2023/09/29 16:27:53;;;;;;;2.55;0.60;;;;;;;18.12;100.00;101718.00;10462643;28;20051;-62
2023/09/29 16:33:16;;;;;;;3.10;0.80;;;;;;;18.10;98.87;101738.19;10471358;28;20052;-63
2023/09/29 16:38:38;;;;;;;6.57;1.10;;;;;;;18.01;99.13;101742.09;10489799;28;20110;-63
2023/09/29 16:44:00;;;;;;;4.93;0.90;;;;;;;17.98;99.40;101763.19;10471426;28;20440;-62
2023/09/29 16:49:22;;;;;;;7.38;1.40;;;;;;;17.82;98.82;101779.66;10470505;28;20044;-62
2023/09/29 16:54:43;;;;;;;6.57;1.27;;;;;;;17.78;99.58;101788.59;10465988;28;20055;-63
2023/09/29 17:00:08;;;;;;;4.03;1.23;;;;;;;17.75;100.00;101807.88;10469315;28;20055;-63
2023/09/29 17:05:29;;;;;;;8.30;1.70;;;;;;;17.73;100.00;101824.56;10466561;28;20052;-63
2023/09/29 17:10:51;;;;;;;8.38;1.83;;;;;;;17.73;97.87;101833.28;10472431;28;20412;-62
2023/09/29 17:16:14;;;;;;;9.15;1.83;;;;;;;17.72;97.71;101847.31;10470136;28;20053;-62
2023/09/29 17:21:35;;;;;;;12.75;2.58;;;;;;;17.69;97.41;101855.28;10467441;28;20059;-62
2023/09/29 17:26:57;;;;;;;11.50;2.60;;;;;;;17.62;96.16;101858.22;10472291;28;20071;-62
2023/09/29 17:32:19;;;;;;;12.93;2.58;;;;;;;17.61;95.32;101861.75;10469001;28;20123;-62
2023/09/29 17:37:40;;;;;;;13.18;2.70;;;;;;;17.53;94.87;101871.69;10471780;28;20110;-62
2023/09/29 17:43:02;;;;;;;10.98;2.63;;;;;;;17.43;96.53;101883.44;10463321;28;20401;-62
2023/09/29 17:48:23;;;;;;;15.23;3.10;;;;;;;17.37;95.60;101894.16;10470141;28;20044;-62
2023/09/29 17:54:02;;;;;;;11.80;3.08;;;;;;;17.25;96.50;101905.13;10472033;28;20394;-63
2023/09/29 17:59:24;;;;;;;13.55;3.28;;;;;;;17.24;96.90;101909.50;10458161;28;20058;-63
2023/09/29 18:04:45;;;;;;;11.30;2.75;;;;;;;17.14;96.84;101907.31;10484545;28;20043;-63
2023/09/29 18:10:08;;;;;;;14.00;3.05;;;;;;;17.09;96.79;101925.81;10466965;28;20604;-63
2023/09/29 18:15:30;;;;;;;14.48;2.95;;;;;;;16.94;97.33;101935.09;10468649;28;20083;-63
2023/09/29 18:20:51;;;;;;;12.60;3.10;;;;;;;16.88;98.18;101943.16;10466650;28;20048;-61
2023/09/29 18:26:13;;;;;;;14.00;3.38;;;;;;;16.86;96.92;101960.72;10463339;28;21166;-62
2023/09/29 18:31:36;;;;;;;14.93;2.95;;;;;;;16.80;97.01;101960.94;10463772;28;20036;-63
2023/09/29 18:36:57;;;;;;;14.68;3.00;;;;;;;16.70;97.23;101970.00;10470892;28;20044;-63
2023/09/29 18:42:19;;;;;;;16.83;2.88;;;;;;;16.72;98.35;101983.03;10472761;28;20032;-63
2023/09/29 18:47:40;;;;;;;14.52;3.35;;;;;;;16.64;97.17;101999.00;10470189;28;20702;-63
2023/09/29 18:53:03;;;;;;;18.88;3.60;;;;;;;16.53;97.36;102019.44;10467843;28;20041;-63
2023/09/29 18:58:25;;;;;;;19.73;3.55;;;;;;;16.46;96.87;102025.78;10465224;28;20047;-63
2023/09/29 19:03:47;;;;;;;13.65;3.30;;;;;;;16.37;95.88;102039.13;10462924;28;20036;-63
2023/09/29 19:09:10;;;;;;;13.05;3.28;;;;;;;16.27;95.28;102052.56;10473767;28;20051;-63
2023/09/29 19:14:32;;;;;;;18.05;3.88;;;;;;;16.19;95.70;102055.41;10457410;28;20253;-64
2023/09/29 19:19:57;;;;;;;16.75;3.67;;;;;;;16.16;95.07;102079.03;10469003;28;20063;-63
2023/09/29 19:25:19;;;;;;;15.02;3.38;;;;;;;16.13;94.86;102081.75;10461356;28;20048;-62
2023/09/29 19:30:41;;;;;;;19.23;3.83;;;;;;;16.08;94.52;102094.97;10472095;28;20092;-62
2023/09/29 19:36:02;;;;;;;18.42;3.78;;;;;;;16.10;94.33;102102.75;10467004;28;20063;-63
2023/09/29 19:41:27;;;;;;;17.20;3.90;;;;;;;16.05;94.32;102109.88;10463931;28;20105;-63
2023/09/29 19:46:52;;;;;;;10.70;3.50;;;;;;;15.99;95.43;102110.06;10465043;28;20063;-62
2023/09/29 19:52:15;;;;;;;12.68;4.10;;;;;;;15.98;95.46;102114.44;10465480;28;20047;-62
2023/09/29 19:57:37;;;;;;;15.10;3.33;;;;;;;15.89;94.49;102126.94;10459376;28;20143;-62
2023/09/29 20:02:59;;;;;;;17.92;4.13;;;;;;;15.81;93.98;102126.31;10480777;28;20043;-63
2023/09/29 20:08:26;;;;;;;14.50;4.05;;;;;;;15.75;95.57;102131.69;10471563;28;20404;-63
2023/09/29 20:13:48;;;;;;;14.63;4.00;;;;;;;15.66;94.44;102131.97;10480568;28;20076;-63
2023/09/29 20:19:09;;;;;;;17.48;4.43;;;;;;;15.60;94.94;102140.03;10469961;28;20146;-62
2023/09/29 20:24:31;;;;;;;13.57;4.47;;;;;;;15.61;96.21;102146.94;10472636;28;20388;-63
2023/09/29 20:29:53;;;;;;;21.23;4.47;;;;;;;15.52;94.82;102148.06;10474852;28;20039;-63
2023/09/29 20:35:16;;;;;;;14.52;4.10;;;;;;;15.52;95.09;102150.69;10471446;28;20048;-63
2023/09/29 20:40:39;;;;;;;21.25;4.25;;;;;;;15.56;94.28;102162.75;10474240;28;20540;-63
2023/09/29 20:46:00;;;;;;;18.23;4.15;;;;;;;15.49;94.04;102168.19;10472054;28;20078;-63
2023/09/29 20:51:22;;;;;;;13.60;3.90;;;;;;;15.46;95.74;102176.06;10455264;28;20048;-62
2023/09/29 20:56:44;;;;;;;17.60;4.20;;;;;;;15.37;94.78;102182.38;10470612;28;20142;-63
2023/09/29 21:02:07;;;;;;;14.07;3.47;;;;;;;15.32;95.02;102188.63;10469914;28;20688;-63
2023/09/29 21:07:28;;;;;;;16.60;4.32;;;;;;;15.35;95.20;102189.38;10480610;28;20048;-63
2023/09/29 21:12:50;;;;;;;20.92;4.50;;;;;;;15.29;94.79;102199.16;10475808;28;20136;-63
2023/09/29 21:18:12;;;;;;;16.73;3.90;;;;;;;15.26;95.85;102201.81;10472011;28;20056;-63
2023/09/29 21:23:34;;;;;;;20.90;5.03;;;;;;;15.19;95.47;102208.97;10471836;28;20036;-63
2023/09/29 21:28:56;;;;;;;19.95;4.22;;;;;;;15.07;95.20;102220.56;10468883;28;20088;-63
2023/09/29 21:34:20;;;;;;;17.08;4.43;;;;;;;15.07;95.53;102225.78;10472116;28;20123;-63
2023/09/29 21:39:42;;;;;;;19.98;5.05;;;;;;;14.99;95.84;102238.19;10469326;28;20397;-63
2023/09/29 21:45:05;;;;;;;15.45;4.47;;;;;;;14.95;95.45;102239.16;10467681;28;20697;-63
2023/09/29 21:50:27;;;;;;;19.17;4.35;;;;;;;14.84;94.83;102241.16;10470640;28;20051;-63
2023/09/29 21:55:48;;;;;;;21.88;4.55;;;;;;;14.74;95.17;102237.06;10473884;28;20045;-63
2023/09/29 22:01:10;;;;;;;16.30;4.85;;;;;;;14.72;95.73;102238.00;10462869;28;20066;-63
2023/09/29 22:06:32;;;;;;;15.68;4.47;;;;;;;14.68;95.81;102244.19;10470514;28;20059;-63
2023/09/29 22:11:54;;;;;;;17.23;4.57;;;;;;;14.69;95.83;102243.28;10466060;28;20045;-63
2023/09/29 22:17:16;;;;;;;15.68;4.25;;;;;;;14.62;95.69;102245.19;10466987;28;20045;-63
2023/09/29 22:22:40;;;;;;;16.63;4.50;;;;;;;14.57;96.24;102246.19;10465626;28;20551;-63
2023/09/29 22:28:02;;;;;;;17.45;4.53;;;;;;;14.62;96.40;102245.19;10463748;28;20049;-63
2023/09/29 22:33:24;;;;;;;15.02;3.70;;;;;;;14.57;95.69;102246.19;10465020;28;20061;-63
2023/09/29 22:38:47;;;;;;;17.10;4.03;;;;;;;14.50;96.37;102237.66;10470297;28;20068;-63
2023/09/29 22:44:09;;;;;;;13.48;3.88;;;;;;;14.50;97.24;102235.06;10464757;28;20052;-63
2023/09/29 22:49:31;;;;;;;25.00;5.18;;;;;;;14.43;96.12;102249.09;10464394;28;20051;-63
2023/09/29 22:54:52;;;;;;;19.60;4.72;;;;;;;14.31;96.87;102246.78;10467489;28;20041;-63
2023/09/29 23:00:14;;;;;;;18.75;4.00;;;;;;;14.27;96.83;102260.75;10472520;28;20055;-63
2023/09/29 23:05:37;;;;;;;22.08;4.30;;;;;;;14.20;96.92;102266.97;10466892;28;20051;-63
2023/09/29 23:10:58;;;;;;;20.05;4.47;;;;;;;14.17;97.65;102250.56;10468243;28;20404;-63
2023/09/29 23:16:20;;;;;;;17.30;4.28;;;;;;;14.19;97.11;102272.22;10465122;28;20127;-63
2023/09/29 23:21:42;;;;;;;22.38;4.50;;;;;;;14.20;96.79;102279.97;10472240;28;20085;-63
2023/09/29 23:27:04;;;;;;;19.83;4.07;;;;;;;14.17;96.92;102289.59;10459670;28;20065;-63
2023/09/29 23:32:27;;;;;;;14.23;4.22;;;;;;;14.16;97.40;102293.94;10466142;28;20084;-63
2023/09/29 23:37:49;;;;;;;21.38;4.20;;;;;;;14.19;97.13;102288.69;10469601;28;20041;-63
2023/09/29 23:43:11;;;;;;;23.02;4.88;;;;;;;14.17;96.63;102310.44;10477181;28;20500;-63
2023/09/29 23:48:33;;;;;;;24.80;3.92;;;;;;;14.14;98.19;102296.59;10473733;28;20048;-63
2023/09/29 23:53:55;;;;;;;25.88;4.68;;;;;;;14.17;97.22;102316.50;10477903;28;20551;-62
2023/09/29 23:59:17;;;;;;;22.48;4.57;;;;;;;14.08;96.88;102319.31;10470771;28;20044;-62
